Oklee, Minnesota
Current Conditions -  °F | °C
As of 8:55 PM on Monday 22 Dec 2014 (Local Time) from KFSE Reporting Station
Drizzle Drizzle  
Wind Chill: 29°   Ceiling: 1200
Heat Index: 34°   Visibility: 7mi
Dew Point: 32°   Wind: 6mph
Humidity: 93%   Direction: 80°E
Pressure: 29.68"   Gusts: NA
Location:  47.84°N, 95.85°W
Report Text: KFSE 230255Z AUTO 08005KT 7SM -DZ OVC012 01/00 A2968 RMK AO2
Loading
Personal Weather Stations






























Interactive Weather Map New forecast layout! Learn more

10-Day Weather Forecast

Advertisements
Track Severe Weather on mobile